sensor_id;sensor_type;location;lat;lon;timestamp;temperature;humidity
48007;DHT22;33771;48.180;11.400;2022-11-03T00:02:20;5.30;99.90
48007;DHT22;33771;48.180;11.400;2022-11-03T00:04:45;5.30;99.90
48007;DHT22;33771;48.180;11.400;2022-11-03T00:07:11;5.30;99.90
48007;DHT22;33771;48.180;11.400;2022-11-03T00:09:37;5.30;99.90
48007;DHT22;33771;48.180;11.400;2022-11-03T00:12:02;5.30;99.90
48007;DHT22;33771;48.180;11.400;2022-11-03T00:14:28;5.30;99.90
48007;DHT22;33771;48.180;11.400;2022-11-03T00:16:54;5.40;99.90
48007;DHT22;33771;48.180;11.400;2022-11-03T00:19:19;5.40;99.90
48007;DHT22;33771;48.180;11.400;2022-11-03T00:21:45;5.40;99.90
48007;DHT22;33771;48.180;11.400;2022-11-03T00:24:12;5.40;99.90
48007;DHT22;33771;48.180;11.400;2022-11-03T00:26:38;5.40;99.90
48007;DHT22;33771;48.180;11.400;2022-11-03T00:29:09;5.40;99.90
48007;DHT22;33771;48.180;11.400;2022-11-03T00:31:36;5.40;99.90
48007;DHT22;33771;48.180;11.400;2022-11-03T00:34:02;5.50;99.90
48007;DHT22;33771;48.180;11.400;2022-11-03T00:36:31;5.50;99.90
48007;DHT22;33771;48.180;11.400;2022-11-03T00:38:57;5.50;99.90
48007;DHT22;33771;48.180;11.400;2022-11-03T00:41:24;5.40;99.90
48007;DHT22;33771;48.180;11.400;2022-11-03T00:43:51;5.40;99.90
48007;DHT22;33771;48.180;11.400;2022-11-03T00:46:19;5.30;99.90
48007;DHT22;33771;48.180;11.400;2022-11-03T00:48:45;5.30;99.90
48007;DHT22;33771;48.180;11.400;2022-11-03T00:51:13;5.30;99.90
48007;DHT22;33771;48.180;11.400;2022-11-03T00:53:50;5.20;99.90
48007;DHT22;33771;48.180;11.400;2022-11-03T00:58:42;5.20;99.90
48007;DHT22;33771;48.180;11.400;2022-11-03T01:01:20;5.10;99.90
48007;DHT22;33771;48.180;11.400;2022-11-03T01:03:49;5.10;99.90
48007;DHT22;33771;48.180;11.400;2022-11-03T01:06:35;5.10;99.90
48007;DHT22;33771;48.180;11.400;2022-11-03T01:09:34;5.10;99.90
48007;DHT22;33771;48.180;11.400;2022-11-03T01:14:39;5.10;99.90
48007;DHT22;33771;48.180;11.400;2022-11-03T01:17:07;5.10;99.90
48007;DHT22;33771;48.180;11.400;2022-11-03T01:19:33;5.10;99.90
48007;DHT22;33771;48.180;11.400;2022-11-03T01:21:58;5.10;99.90
48007;DHT22;33771;48.180;11.400;2022-11-03T01:24:24;5.10;99.90
48007;DHT22;33771;48.180;11.400;2022-11-03T01:26:50;5.10;99.90
48007;DHT22;33771;48.180;11.400;2022-11-03T01:29:15;5.10;99.90
48007;DHT22;33771;48.180;11.400;2022-11-03T01:31:41;5.00;99.90
48007;DHT22;33771;48.180;11.400;2022-11-03T01:34:12;5.00;99.90
48007;DHT22;33771;48.180;11.400;2022-11-03T01:36:38;5.00;99.90
48007;DHT22;33771;48.180;11.400;2022-11-03T01:39:04;5.00;99.90
48007;DHT22;33771;48.180;11.400;2022-11-03T01:41:29;5.00;99.90
48007;DHT22;33771;48.180;11.400;2022-11-03T01:49:24;5.00;99.90
48007;DHT22;33771;48.180;11.400;2022-11-03T01:51:56;5.00;99.90
48007;DHT22;33771;48.180;11.400;2022-11-03T01:54:26;4.90;99.90
48007;DHT22;33771;48.180;11.400;2022-11-03T01:56:53;4.90;99.90
48007;DHT22;33771;48.180;11.400;2022-11-03T01:59:21;4.90;99.90
48007;DHT22;33771;48.180;11.400;2022-11-03T02:01:48;4.90;99.90
48007;DHT22;33771;48.180;11.400;2022-11-03T02:04:22;4.80;99.90
48007;DHT22;33771;48.180;11.400;2022-11-03T02:06:57;4.80;99.90
48007;DHT22;33771;48.180;11.400;2022-11-03T02:09:26;4.80;99.90
48007;DHT22;33771;48.180;11.400;2022-11-03T02:11:52;4.80;99.90
48007;DHT22;33771;48.180;11.400;2022-11-03T02:14:35;4.80;99.90
48007;DHT22;33771;48.180;11.400;2022-11-03T02:17:04;4.80;99.90
48007;DHT22;33771;48.180;11.400;2022-11-03T02:19:35;4.80;99.90
48007;DHT22;33771;48.180;11.400;2022-11-03T02:22:24;4.80;99.90
48007;DHT22;33771;48.180;11.400;2022-11-03T02:27:26;4.80;99.90
48007;DHT22;33771;48.180;11.400;2022-11-03T02:29:52;4.80;99.90
48007;DHT22;33771;48.180;11.400;2022-11-03T02:32:24;4.80;99.90
48007;DHT22;33771;48.180;11.400;2022-11-03T02:35:19;4.80;99.90
48007;DHT22;33771;48.180;11.400;2022-11-03T02:37:47;4.80;99.90
48007;DHT22;33771;48.180;11.400;2022-11-03T02:40:22;4.80;99.90
48007;DHT22;33771;48.180;11.400;2022-11-03T02:42:51;4.80;99.90
48007;DHT22;33771;48.180;11.400;2022-11-03T02:45:20;4.80;99.90
48007;DHT22;33771;48.180;11.400;2022-11-03T02:47:48;4.70;99.90
48007;DHT22;33771;48.180;11.400;2022-11-03T02:50:14;4.70;99.90
48007;DHT22;33771;48.180;11.400;2022-11-03T02:52:42;4.70;99.90
48007;DHT22;33771;48.180;11.400;2022-11-03T02:55:19;4.70;99.90
48007;DHT22;33771;48.180;11.400;2022-11-03T03:03:59;4.60;99.90
48007;DHT22;33771;48.180;11.400;2022-11-03T03:09:26;4.60;99.90
48007;DHT22;33771;48.180;11.400;2022-11-03T03:11:54;4.50;99.90
48007;DHT22;33771;48.180;11.400;2022-11-03T03:14:26;4.50;99.90
48007;DHT22;33771;48.180;11.400;2022-11-03T03:19:52;4.50;99.90
48007;DHT22;33771;48.180;11.400;2022-11-03T03:22:38;4.40;99.90
48007;DHT22;33771;48.180;11.400;2022-11-03T03:27:33;4.40;99.90
48007;DHT22;33771;48.180;11.400;2022-11-03T03:30:05;4.40;99.90
48007;DHT22;33771;48.180;11.400;2022-11-03T03:32:35;4.40;99.90
48007;DHT22;33771;48.180;11.400;2022-11-03T03:35:04;4.40;99.90
48007;DHT22;33771;48.180;11.400;2022-11-03T03:37:34;4.30;99.90
48007;DHT22;33771;48.180;11.400;2022-11-03T03:40:05;4.30;99.90
48007;DHT22;33771;48.180;11.400;2022-11-03T03:42:33;4.20;99.90
48007;DHT22;33771;48.180;11.400;2022-11-03T03:45:00;4.20;99.90
48007;DHT22;33771;48.180;11.400;2022-11-03T03:47:28;4.20;99.90
48007;DHT22;33771;48.180;11.400;2022-11-03T03:49:55;4.10;99.90
48007;DHT22;33771;48.180;11.400;2022-11-03T03:52:21;4.10;99.90
48007;DHT22;33771;48.180;11.400;2022-11-03T03:54:47;4.10;99.90
48007;DHT22;33771;48.180;11.400;2022-11-03T03:57:15;4.10;99.90
48007;DHT22;33771;48.180;11.400;2022-11-03T03:59:42;4.10;99.90
48007;DHT22;33771;48.180;11.400;2022-11-03T04:02:08;4.10;99.90
48007;DHT22;33771;48.180;11.400;2022-11-03T04:04:33;4.10;99.90
48007;DHT22;33771;48.180;11.400;2022-11-03T04:06:59;4.00;99.90
48007;DHT22;33771;48.180;11.400;2022-11-03T04:09:43;4.00;99.90
48007;DHT22;33771;48.180;11.400;2022-11-03T04:12:09;4.00;99.90
48007;DHT22;33771;48.180;11.400;2022-11-03T04:15:00;3.90;99.90
48007;DHT22;33771;48.180;11.400;2022-11-03T04:17:46;3.90;99.90
48007;DHT22;33771;48.180;11.400;2022-11-03T04:20:31;3.90;99.90
48007;DHT22;33771;48.180;11.400;2022-11-03T04:23:16;3.90;99.90
48007;DHT22;33771;48.180;11.400;2022-11-03T04:25:47;3.90;99.90
48007;DHT22;33771;48.180;11.400;2022-11-03T04:28:14;3.90;99.90
48007;DHT22;33771;48.180;11.400;2022-11-03T04:30:40;3.80;99.90
48007;DHT22;33771;48.180;11.400;2022-11-03T04:33:19;3.80;99.90
48007;DHT22;33771;48.180;11.400;2022-11-03T04:35:46;3.80;99.90
48007;DHT22;33771;48.180;11.400;2022-11-03T04:40:42;3.70;99.90
48007;DHT22;33771;48.180;11.400;2022-11-03T04:43:13;3.70;99.90
48007;DHT22;33771;48.180;11.400;2022-11-03T04:45:39;3.70;99.90
48007;DHT22;33771;48.180;11.400;2022-11-03T04:48:15;3.70;99.90
48007;DHT22;33771;48.180;11.400;2022-11-03T04:50:41;3.70;99.90
48007;DHT22;33771;48.180;11.400;2022-11-03T04:53:13;3.70;99.90
48007;DHT22;33771;48.180;11.400;2022-11-03T04:55:40;3.70;99.90
48007;DHT22;33771;48.180;11.400;2022-11-03T04:58:20;3.70;99.90
48007;DHT22;33771;48.180;11.400;2022-11-03T05:00:49;3.70;99.90
48007;DHT22;33771;48.180;11.400;2022-11-03T05:03:22;3.70;99.90
48007;DHT22;33771;48.180;11.400;2022-11-03T05:05:48;3.70;99.90
48007;DHT22;33771;48.180;11.400;2022-11-03T05:08:16;3.70;99.90
48007;DHT22;33771;48.180;11.400;2022-11-03T05:10:43;3.70;99.90
48007;DHT22;33771;48.180;11.400;2022-11-03T05:13:23;3.70;99.90
48007;DHT22;33771;48.180;11.400;2022-11-03T05:15:51;3.70;99.90
48007;DHT22;33771;48.180;11.400;2022-11-03T05:20:49;3.70;99.90
48007;DHT22;33771;48.180;11.400;2022-11-03T05:23:15;3.60;99.90
48007;DHT22;33771;48.180;11.400;2022-11-03T05:25:44;3.60;99.90
48007;DHT22;33771;48.180;11.400;2022-11-03T05:28:23;3.60;99.90
48007;DHT22;33771;48.180;11.400;2022-11-03T05:30:50;3.50;99.90
48007;DHT22;33771;48.180;11.400;2022-11-03T05:33:30;3.60;99.90
48007;DHT22;33771;48.180;11.400;2022-11-03T05:35:58;3.60;99.90
48007;DHT22;33771;48.180;11.400;2022-11-03T05:38:29;3.60;99.90
48007;DHT22;33771;48.180;11.400;2022-11-03T05:40:55;3.60;99.90
48007;DHT22;33771;48.180;11.400;2022-11-03T05:43:20;3.60;99.90
48007;DHT22;33771;48.180;11.400;2022-11-03T05:45:51;3.60;99.90
48007;DHT22;33771;48.180;11.400;2022-11-03T05:48:29;3.70;99.90
48007;DHT22;33771;48.180;11.400;2022-11-03T05:50:56;3.80;99.90
48007;DHT22;33771;48.180;11.400;2022-11-03T05:53:29;3.80;99.90
48007;DHT22;33771;48.180;11.400;2022-11-03T05:55:58;3.80;99.90
48007;DHT22;33771;48.180;11.400;2022-11-03T05:58:35;3.90;99.90
48007;DHT22;33771;48.180;11.400;2022-11-03T06:01:05;3.90;99.90
48007;DHT22;33771;48.180;11.400;2022-11-03T06:03:35;4.00;99.90
48007;DHT22;33771;48.180;11.400;2022-11-03T06:06:02;4.00;99.90
48007;DHT22;33771;48.180;11.400;2022-11-03T06:08:35;4.00;99.90
48007;DHT22;33771;48.180;11.400;2022-11-03T06:11:02;4.00;99.90
48007;DHT22;33771;48.180;11.400;2022-11-03T06:13:33;4.10;99.90
48007;DHT22;33771;48.180;11.400;2022-11-03T06:18:50;4.10;99.90
48007;DHT22;33771;48.180;11.400;2022-11-03T06:21:21;4.20;99.90
48007;DHT22;33771;48.180;11.400;2022-11-03T06:23:47;4.20;99.90
48007;DHT22;33771;48.180;11.400;2022-11-03T06:26:18;4.20;99.90
48007;DHT22;33771;48.180;11.400;2022-11-03T06:28:44;4.30;99.90
48007;DHT22;33771;48.180;11.400;2022-11-03T06:31:30;4.30;99.90
48007;DHT22;33771;48.180;11.400;2022-11-03T06:33:57;4.30;99.90
48007;DHT22;33771;48.180;11.400;2022-11-03T06:36:34;4.30;99.90
48007;DHT22;33771;48.180;11.400;2022-11-03T06:39:02;4.40;99.90
48007;DHT22;33771;48.180;11.400;2022-11-03T06:41:30;4.50;99.90
48007;DHT22;33771;48.180;11.400;2022-11-03T06:43:59;4.60;99.90
48007;DHT22;33771;48.180;11.400;2022-11-03T06:46:25;4.60;99.90
48007;DHT22;33771;48.180;11.400;2022-11-03T06:48:53;4.70;99.90
48007;DHT22;33771;48.180;11.400;2022-11-03T06:51:27;4.80;99.90
48007;DHT22;33771;48.180;11.400;2022-11-03T06:53:54;4.80;99.90
48007;DHT22;33771;48.180;11.400;2022-11-03T06:56:24;4.80;99.90
48007;DHT22;33771;48.180;11.400;2022-11-03T06:58:55;4.90;99.90
48007;DHT22;33771;48.180;11.400;2022-11-03T07:01:22;5.00;99.90
48007;DHT22;33771;48.180;11.400;2022-11-03T07:03:50;5.00;99.90
48007;DHT22;33771;48.180;11.400;2022-11-03T07:06:19;5.10;99.90
48007;DHT22;33771;48.180;11.400;2022-11-03T07:08:52;5.10;99.90
48007;DHT22;33771;48.180;11.400;2022-11-03T07:11:30;5.20;99.90
48007;DHT22;33771;48.180;11.400;2022-11-03T07:13:58;5.20;99.90
48007;DHT22;33771;48.180;11.400;2022-11-03T07:19:04;5.20;99.90
48007;DHT22;33771;48.180;11.400;2022-11-03T07:21:39;5.30;99.90
48007;DHT22;33771;48.180;11.400;2022-11-03T07:30:05;5.30;99.90
48007;DHT22;33771;48.180;11.400;2022-11-03T07:32:35;5.40;99.90
48007;DHT22;33771;48.180;11.400;2022-11-03T07:37:40;5.50;99.90
48007;DHT22;33771;48.180;11.400;2022-11-03T07:40:15;5.50;99.90
48007;DHT22;33771;48.180;11.400;2022-11-03T07:42:42;5.60;99.90
48007;DHT22;33771;48.180;11.400;2022-11-03T07:45:51;5.70;99.90
48007;DHT22;33771;48.180;11.400;2022-11-03T07:48:26;5.70;99.90
48007;DHT22;33771;48.180;11.400;2022-11-03T07:50:55;5.80;99.90
48007;DHT22;33771;48.180;11.400;2022-11-03T07:55:55;5.90;99.90
48007;DHT22;33771;48.180;11.400;2022-11-03T07:58:33;6.00;99.90
48007;DHT22;33771;48.180;11.400;2022-11-03T08:01:03;6.00;99.90
48007;DHT22;33771;48.180;11.400;2022-11-03T08:03:41;6.10;99.90
48007;DHT22;33771;48.180;11.400;2022-11-03T08:06:08;6.20;99.90
48007;DHT22;33771;48.180;11.400;2022-11-03T08:08:34;6.20;99.90
48007;DHT22;33771;48.180;11.400;2022-11-03T08:11:00;6.20;99.90
48007;DHT22;33771;48.180;11.400;2022-11-03T08:13:25;6.30;99.90
48007;DHT22;33771;48.180;11.400;2022-11-03T08:15:51;6.30;99.90
48007;DHT22;33771;48.180;11.400;2022-11-03T08:18:16;6.40;99.90
48007;DHT22;33771;48.180;11.400;2022-11-03T08:20:42;6.40;99.90
48007;DHT22;33771;48.180;11.400;2022-11-03T08:23:07;6.50;99.90
48007;DHT22;33771;48.180;11.400;2022-11-03T08:25:35;6.60;99.90
48007;DHT22;33771;48.180;11.400;2022-11-03T08:28:01;6.70;99.90
48007;DHT22;33771;48.180;11.400;2022-11-03T08:30:28;6.80;99.90
48007;DHT22;33771;48.180;11.400;2022-11-03T08:32:54;6.80;99.90
48007;DHT22;33771;48.180;11.400;2022-11-03T08:35:20;6.90;99.90
48007;DHT22;33771;48.180;11.400;2022-11-03T08:37:45;6.90;99.90
48007;DHT22;33771;48.180;11.400;2022-11-03T08:40:11;7.10;99.90
48007;DHT22;33771;48.180;11.400;2022-11-03T08:42:37;7.10;99.90
48007;DHT22;33771;48.180;11.400;2022-11-03T08:45:03;7.20;99.90
48007;DHT22;33771;48.180;11.400;2022-11-03T08:47:29;7.30;99.90
48007;DHT22;33771;48.180;11.400;2022-11-03T08:49:54;7.40;99.90
48007;DHT22;33771;48.180;11.400;2022-11-03T08:52:20;7.50;99.90
48007;DHT22;33771;48.180;11.400;2022-11-03T08:54:46;7.50;99.90
48007;DHT22;33771;48.180;11.400;2022-11-03T08:57:11;7.40;99.90
48007;DHT22;33771;48.180;11.400;2022-11-03T08:59:37;7.40;99.90
48007;DHT22;33771;48.180;11.400;2022-11-03T09:02:03;7.40;99.90
48007;DHT22;33771;48.180;11.400;2022-11-03T09:04:28;7.40;99.90
48007;DHT22;33771;48.180;11.400;2022-11-03T09:06:54;7.40;99.90
48007;DHT22;33771;48.180;11.400;2022-11-03T09:09:20;7.50;99.90
48007;DHT22;33771;48.180;11.400;2022-11-03T09:11:46;7.60;99.90
48007;DHT22;33771;48.180;11.400;2022-11-03T09:14:12;7.70;99.90
48007;DHT22;33771;48.180;11.400;2022-11-03T09:16:37;7.70;99.90
48007;DHT22;33771;48.180;11.400;2022-11-03T09:19:03;7.80;99.90
48007;DHT22;33771;48.180;11.400;2022-11-03T09:21:29;7.80;99.90
48007;DHT22;33771;48.180;11.400;2022-11-03T09:23:54;7.80;99.90
48007;DHT22;33771;48.180;11.400;2022-11-03T09:26:20;7.90;99.90
48007;DHT22;33771;48.180;11.400;2022-11-03T09:28:46;7.90;99.90
48007;DHT22;33771;48.180;11.400;2022-11-03T09:31:13;8.00;99.90
48007;DHT22;33771;48.180;11.400;2022-11-03T09:33:39;8.00;99.90
48007;DHT22;33771;48.180;11.400;2022-11-03T09:36:05;8.10;99.90
48007;DHT22;33771;48.180;11.400;2022-11-03T09:38:31;8.10;99.90
48007;DHT22;33771;48.180;11.400;2022-11-03T09:40:56;8.20;99.90
48007;DHT22;33771;48.180;11.400;2022-11-03T09:43:22;8.30;99.90
48007;DHT22;33771;48.180;11.400;2022-11-03T09:45:48;8.30;99.90
48007;DHT22;33771;48.180;11.400;2022-11-03T09:48:14;8.30;99.90
48007;DHT22;33771;48.180;11.400;2022-11-03T09:50:39;8.40;99.90
48007;DHT22;33771;48.180;11.400;2022-11-03T09:53:08;8.40;99.90
48007;DHT22;33771;48.180;11.400;2022-11-03T09:55:33;8.50;99.90
48007;DHT22;33771;48.180;11.400;2022-11-03T09:58:01;8.60;99.90
48007;DHT22;33771;48.180;11.400;2022-11-03T10:00:34;8.70;99.90
48007;DHT22;33771;48.180;11.400;2022-11-03T10:03:01;8.80;99.90
48007;DHT22;33771;48.180;11.400;2022-11-03T10:05:28;8.90;99.90
48007;DHT22;33771;48.180;11.400;2022-11-03T10:07:57;8.90;99.90
48007;DHT22;33771;48.180;11.400;2022-11-03T10:10:24;8.90;99.90
48007;DHT22;33771;48.180;11.400;2022-11-03T10:12:50;8.90;99.90
48007;DHT22;33771;48.180;11.400;2022-11-03T10:15:19;9.00;99.90
48007;DHT22;33771;48.180;11.400;2022-11-03T10:17:46;9.00;99.90
48007;DHT22;33771;48.180;11.400;2022-11-03T10:20:14;9.10;99.90
48007;DHT22;33771;48.180;11.400;2022-11-03T10:22:41;9.20;99.90
48007;DHT22;33771;48.180;11.400;2022-11-03T10:25:34;9.30;99.90
48007;DHT22;33771;48.180;11.400;2022-11-03T10:35:56;9.60;99.90
48007;DHT22;33771;48.180;11.400;2022-11-03T10:38:31;9.70;99.90
48007;DHT22;33771;48.180;11.400;2022-11-03T10:41:18;9.70;99.90
48007;DHT22;33771;48.180;11.400;2022-11-03T10:46:23;10.00;99.90
48007;DHT22;33771;48.180;11.400;2022-11-03T10:51:35;10.20;99.90
48007;DHT22;33771;48.180;11.400;2022-11-03T10:54:03;10.30;99.90
48007;DHT22;33771;48.180;11.400;2022-11-03T10:56:33;10.30;99.90
48007;DHT22;33771;48.180;11.400;2022-11-03T10:58:59;10.30;99.90
48007;DHT22;33771;48.180;11.400;2022-11-03T11:01:26;10.40;99.90
48007;DHT22;33771;48.180;11.400;2022-11-03T11:03:51;10.60;99.90
48007;DHT22;33771;48.180;11.400;2022-11-03T11:06:20;10.70;99.90
48007;DHT22;33771;48.180;11.400;2022-11-03T11:08:48;10.90;99.90
48007;DHT22;33771;48.180;11.400;2022-11-03T11:11:16;11.00;99.90
48007;DHT22;33771;48.180;11.400;2022-11-03T11:13:42;11.10;99.90
48007;DHT22;33771;48.180;11.400;2022-11-03T11:17:13;11.20;99.90
48007;DHT22;33771;48.180;11.400;2022-11-03T11:19:27;11.30;99.90
48007;DHT22;33771;48.180;11.400;2022-11-03T11:21:58;11.50;99.90
48007;DHT22;33771;48.180;11.400;2022-11-03T11:30:03;11.90;99.90
48007;DHT22;33771;48.180;11.400;2022-11-03T11:35:08;12.00;99.90
48007;DHT22;33771;48.180;11.400;2022-11-03T11:37:35;12.00;99.90
48007;DHT22;33771;48.180;11.400;2022-11-03T11:48:28;12.20;99.90
48007;DHT22;33771;48.180;11.400;2022-11-03T11:50:56;12.30;99.90
48007;DHT22;33771;48.180;11.400;2022-11-03T11:53:23;12.20;99.90
48007;DHT22;33771;48.180;11.400;2022-11-03T11:55:56;12.20;99.90
48007;DHT22;33771;48.180;11.400;2022-11-03T12:01:25;12.10;99.90
48007;DHT22;33771;48.180;11.400;2022-11-03T12:03:57;12.10;99.90
48007;DHT22;33771;48.180;11.400;2022-11-03T12:06:36;12.20;99.90
48007;DHT22;33771;48.180;11.400;2022-11-03T12:09:18;12.20;99.90
48007;DHT22;33771;48.180;11.400;2022-11-03T12:11:52;12.30;99.90
48007;DHT22;33771;48.180;11.400;2022-11-03T12:16:50;12.60;99.90
48007;DHT22;33771;48.180;11.400;2022-11-03T12:19:52;12.70;99.90
48007;DHT22;33771;48.180;11.400;2022-11-03T12:25:04;12.90;99.90
48007;DHT22;33771;48.180;11.400;2022-11-03T12:30:15;12.90;99.90
48007;DHT22;33771;48.180;11.400;2022-11-03T12:32:41;13.00;99.90
48007;DHT22;33771;48.180;11.400;2022-11-03T12:35:08;13.00;99.90
48007;DHT22;33771;48.180;11.400;2022-11-03T12:37:34;13.00;99.90
48007;DHT22;33771;48.180;11.400;2022-11-03T12:40:00;13.00;99.90
48007;DHT22;33771;48.180;11.400;2022-11-03T12:42:28;13.00;99.90
48007;DHT22;33771;48.180;11.400;2022-11-03T12:44:53;13.10;99.90
48007;DHT22;33771;48.180;11.400;2022-11-03T12:47:20;13.10;99.90
48007;DHT22;33771;48.180;11.400;2022-11-03T12:49:45;13.00;99.90
48007;DHT22;33771;48.180;11.400;2022-11-03T12:52:11;13.00;99.90
48007;DHT22;33771;48.180;11.400;2022-11-03T12:54:37;13.00;99.90
48007;DHT22;33771;48.180;11.400;2022-11-03T12:57:03;13.00;99.90
48007;DHT22;33771;48.180;11.400;2022-11-03T12:59:29;13.10;99.90
48007;DHT22;33771;48.180;11.400;2022-11-03T13:01:55;13.00;99.90
48007;DHT22;33771;48.180;11.400;2022-11-03T13:04:20;13.00;99.90
48007;DHT22;33771;48.180;11.400;2022-11-03T13:06:46;12.90;99.90
48007;DHT22;33771;48.180;11.400;2022-11-03T13:09:13;12.90;99.90
48007;DHT22;33771;48.180;11.400;2022-11-03T13:11:38;12.80;99.90
48007;DHT22;33771;48.180;11.400;2022-11-03T13:14:23;12.80;99.90
48007;DHT22;33771;48.180;11.400;2022-11-03T13:16:50;12.80;99.90
48007;DHT22;33771;48.180;11.400;2022-11-03T13:19:16;12.70;99.90
48007;DHT22;33771;48.180;11.400;2022-11-03T13:21:41;12.70;99.90
48007;DHT22;33771;48.180;11.400;2022-11-03T13:24:07;12.70;99.90
48007;DHT22;33771;48.180;11.400;2022-11-03T13:26:33;12.70;99.90
48007;DHT22;33771;48.180;11.400;2022-11-03T13:28:58;12.80;99.90
48007;DHT22;33771;48.180;11.400;2022-11-03T13:31:24;12.70;99.90
48007;DHT22;33771;48.180;11.400;2022-11-03T13:33:49;12.80;99.90
48007;DHT22;33771;48.180;11.400;2022-11-03T13:36:16;12.70;99.90
48007;DHT22;33771;48.180;11.400;2022-11-03T13:38:42;12.70;99.90
48007;DHT22;33771;48.180;11.400;2022-11-03T13:41:07;12.70;99.90
48007;DHT22;33771;48.180;11.400;2022-11-03T13:43:33;12.70;99.90
48007;DHT22;33771;48.180;11.400;2022-11-03T13:45:58;12.70;99.90
48007;DHT22;33771;48.180;11.400;2022-11-03T13:48:27;12.70;99.90
48007;DHT22;33771;48.180;11.400;2022-11-03T13:50:52;12.60;99.90
48007;DHT22;33771;48.180;11.400;2022-11-03T13:53:18;12.60;99.90
48007;DHT22;33771;48.180;11.400;2022-11-03T13:55:44;12.70;99.90
48007;DHT22;33771;48.180;11.400;2022-11-03T13:58:09;12.60;99.90
48007;DHT22;33771;48.180;11.400;2022-11-03T14:00:35;12.50;99.90
48007;DHT22;33771;48.180;11.400;2022-11-03T14:03:00;12.40;99.90
48007;DHT22;33771;48.180;11.400;2022-11-03T14:05:26;12.30;99.90
48007;DHT22;33771;48.180;11.400;2022-11-03T14:07:52;12.30;99.90
48007;DHT22;33771;48.180;11.400;2022-11-03T14:10:17;12.30;99.90
48007;DHT22;33771;48.180;11.400;2022-11-03T14:12:43;12.30;99.90
48007;DHT22;33771;48.180;11.400;2022-11-03T14:15:10;12.20;99.90
48007;DHT22;33771;48.180;11.400;2022-11-03T14:17:37;12.20;99.90
48007;DHT22;33771;48.180;11.400;2022-11-03T14:20:03;12.10;99.90
48007;DHT22;33771;48.180;11.400;2022-11-03T14:22:29;12.10;99.90
48007;DHT22;33771;48.180;11.400;2022-11-03T14:24:55;12.00;99.90
48007;DHT22;33771;48.180;11.400;2022-11-03T14:27:20;12.00;99.90
48007;DHT22;33771;48.180;11.400;2022-11-03T14:29:46;11.90;99.90
48007;DHT22;33771;48.180;11.400;2022-11-03T14:32:16;11.90;99.90
48007;DHT22;33771;48.180;11.400;2022-11-03T14:34:41;11.80;99.90
48007;DHT22;33771;48.180;11.400;2022-11-03T14:37:08;11.80;99.90
48007;DHT22;33771;48.180;11.400;2022-11-03T14:39:34;11.70;99.90
48007;DHT22;33771;48.180;11.400;2022-11-03T14:42:01;11.60;99.90
48007;DHT22;33771;48.180;11.400;2022-11-03T14:44:35;11.50;99.90
48007;DHT22;33771;48.180;11.400;2022-11-03T14:47:03;11.50;99.90
48007;DHT22;33771;48.180;11.400;2022-11-03T14:49:30;11.40;99.90
48007;DHT22;33771;48.180;11.400;2022-11-03T14:51:56;11.40;99.90
48007;DHT22;33771;48.180;11.400;2022-11-03T14:54:23;11.30;99.90
48007;DHT22;33771;48.180;11.400;2022-11-03T14:56:49;11.30;99.90
48007;DHT22;33771;48.180;11.400;2022-11-03T14:59:14;11.20;99.90
48007;DHT22;33771;48.180;11.400;2022-11-03T15:01:40;11.20;99.90
48007;DHT22;33771;48.180;11.400;2022-11-03T15:04:06;11.10;99.90
48007;DHT22;33771;48.180;11.400;2022-11-03T15:06:33;11.10;99.90
48007;DHT22;33771;48.180;11.400;2022-11-03T15:08:58;11.00;99.90
48007;DHT22;33771;48.180;11.400;2022-11-03T15:11:24;11.00;99.90
48007;DHT22;33771;48.180;11.400;2022-11-03T15:13:49;10.90;99.90
48007;DHT22;33771;48.180;11.400;2022-11-03T15:16:15;10.90;99.90
48007;DHT22;33771;48.180;11.400;2022-11-03T15:18:41;10.80;99.90
48007;DHT22;33771;48.180;11.400;2022-11-03T15:21:08;10.80;99.90
48007;DHT22;33771;48.180;11.400;2022-11-03T15:23:34;10.70;99.90
48007;DHT22;33771;48.180;11.400;2022-11-03T15:25:59;10.70;99.90
48007;DHT22;33771;48.180;11.400;2022-11-03T15:28:26;10.70;99.90
48007;DHT22;33771;48.180;11.400;2022-11-03T15:30:51;10.60;99.90
48007;DHT22;33771;48.180;11.400;2022-11-03T15:33:17;10.60;99.90
48007;DHT22;33771;48.180;11.400;2022-11-03T15:35:43;10.60;99.90
48007;DHT22;33771;48.180;11.400;2022-11-03T15:38:08;10.60;99.90
48007;DHT22;33771;48.180;11.400;2022-11-03T15:40:34;10.50;99.90
48007;DHT22;33771;48.180;11.400;2022-11-03T15:43:00;10.50;99.90
48007;DHT22;33771;48.180;11.400;2022-11-03T15:45:25;10.50;99.90
48007;DHT22;33771;48.180;11.400;2022-11-03T15:47:51;10.40;99.90
48007;DHT22;33771;48.180;11.400;2022-11-03T15:50:17;10.40;99.90
48007;DHT22;33771;48.180;11.400;2022-11-03T15:52:42;10.40;99.90
48007;DHT22;33771;48.180;11.400;2022-11-03T15:55:09;10.30;99.90
48007;DHT22;33771;48.180;11.400;2022-11-03T15:57:35;10.30;99.90
48007;DHT22;33771;48.180;11.400;2022-11-03T16:00:03;10.30;99.90
48007;DHT22;33771;48.180;11.400;2022-11-03T16:02:30;10.20;99.90
48007;DHT22;33771;48.180;11.400;2022-11-03T16:04:56;10.20;99.90
48007;DHT22;33771;48.180;11.400;2022-11-03T16:07:22;10.20;99.90
48007;DHT22;33771;48.180;11.400;2022-11-03T16:09:48;10.20;99.90
48007;DHT22;33771;48.180;11.400;2022-11-03T16:12:14;10.10;99.90
48007;DHT22;33771;48.180;11.400;2022-11-03T16:14:39;10.10;99.90
48007;DHT22;33771;48.180;11.400;2022-11-03T16:17:05;10.10;99.90
48007;DHT22;33771;48.180;11.400;2022-11-03T16:19:31;10.10;99.90
48007;DHT22;33771;48.180;11.400;2022-11-03T16:21:57;10.20;99.90
48007;DHT22;33771;48.180;11.400;2022-11-03T16:24:23;10.20;99.90
48007;DHT22;33771;48.180;11.400;2022-11-03T16:26:48;10.10;99.90
48007;DHT22;33771;48.180;11.400;2022-11-03T16:29:16;10.10;99.90
48007;DHT22;33771;48.180;11.400;2022-11-03T16:31:42;10.10;99.90
48007;DHT22;33771;48.180;11.400;2022-11-03T16:34:08;10.10;99.90
48007;DHT22;33771;48.180;11.400;2022-11-03T16:36:34;10.10;99.90
48007;DHT22;33771;48.180;11.400;2022-11-03T16:39:00;10.10;99.90
48007;DHT22;33771;48.180;11.400;2022-11-03T16:41:26;10.00;99.90
48007;DHT22;33771;48.180;11.400;2022-11-03T16:43:52;10.00;99.90
48007;DHT22;33771;48.180;11.400;2022-11-03T16:46:17;10.00;99.90
48007;DHT22;33771;48.180;11.400;2022-11-03T16:48:43;9.90;99.90
48007;DHT22;33771;48.180;11.400;2022-11-03T16:51:09;9.90;99.90
48007;DHT22;33771;48.180;11.400;2022-11-03T16:53:35;9.90;99.90
48007;DHT22;33771;48.180;11.400;2022-11-03T16:56:00;9.90;99.90
48007;DHT22;33771;48.180;11.400;2022-11-03T16:58:26;9.80;99.90
48007;DHT22;33771;48.180;11.400;2022-11-03T17:00:51;9.80;99.90
48007;DHT22;33771;48.180;11.400;2022-11-03T17:03:17;9.80;99.90
48007;DHT22;33771;48.180;11.400;2022-11-03T17:05:42;9.80;99.90